Time;durP1;ratioP1;P1;durP2;ratioP2;P2;SDS_P1;SDS_P2;PMS_P1;PMS_P2;Temp;Humidity;BMP_temperature;BMP_pressure;BME280_temperature;BME280_humidity;BME280_pressure;Samples;Min_cycle;Max_cycle;Signal;HPM_P1;HPM_P2
2023/04/18 04:02:15;;;;;;;3.70;3.50;;;5.30;99.90;;;;;;5142003;23;20254;-70
2023/04/18 04:04:42;;;;;;;8.00;5.45;;;5.20;99.90;;;;;;4993046;28;20254;-68
2023/04/18 04:07:09;;;;;;;9.05;6.18;;;5.20;99.90;;;;;;4993883;28;20207;-69
2023/04/18 04:09:35;;;;;;;6.47;5.90;;;5.20;99.90;;;;;;4992875;28;20212;-69
2023/04/18 04:12:02;;;;;;;13.15;6.97;;;5.20;99.90;;;;;;4993493;28;20224;-69
2023/04/18 04:14:29;;;;;;;11.05;9.85;;;5.20;99.90;;;;;;5015741;22;20295;-70
2023/04/18 04:16:56;;;;;;;14.82;7.50;;;5.10;99.90;;;;;;4993425;28;20215;-70
2023/04/18 04:19:24;;;;;;;11.43;6.53;;;5.10;99.90;;;;;;4993073;28;20208;-70
2023/04/18 04:21:50;;;;;;;5.68;5.10;;;5.10;99.90;;;;;;4993152;28;20687;-70
2023/04/18 04:24:17;;;;;;;9.27;7.85;;;5.10;99.90;;;;;;4993100;28;20227;-69
2023/04/18 04:26:45;;;;;;;10.18;6.60;;;5.10;99.90;;;;;;4993073;28;20698;-71
2023/04/18 04:29:12;;;;;;;7.68;7.35;;;5.10;99.90;;;;;;4993162;28;20203;-70
2023/04/18 04:31:39;;;;;;;8.65;6.80;;;5.10;99.90;;;;;;4993388;28;20216;-70
2023/04/18 04:34:07;;;;;;;6.57;2.65;;;5.10;99.90;;;;;;4992682;28;20208;-69
2023/04/18 04:36:35;;;;;;;11.48;8.90;;;5.10;99.90;;;;;;4992890;28;20278;-70
2023/04/18 04:39:04;;;;;;;6.50;4.90;;;5.10;99.90;;;;;;4992819;28;20702;-70
2023/04/18 04:41:30;;;;;;;12.98;6.85;;;5.10;99.90;;;;;;4992973;28;20234;-71
2023/04/18 04:43:58;;;;;;;7.15;6.55;;;5.10;99.90;;;;;;4992563;28;20216;-70
2023/04/18 04:46:25;;;;;;;6.68;5.95;;;5.10;99.90;;;;;;4993070;28;20649;-71
2023/04/18 04:48:53;;;;;;;6.28;5.25;;;5.20;99.90;;;;;;4992693;28;20616;-70
2023/04/18 04:51:19;;;;;;;4.63;4.03;;;5.40;99.90;;;;;;4992956;28;20291;-70
2023/04/18 04:53:47;;;;;;;7.50;6.57;;;5.60;99.90;;;;;;4992697;28;20219;-70
2023/04/18 04:56:14;;;;;;;28.98;9.77;;;5.80;99.90;;;;;;4992303;28;20238;-69
2023/04/18 04:58:41;;;;;;;6.63;5.43;;;5.90;99.90;;;;;;4992299;28;20211;-71
2023/04/18 05:01:08;;;;;;;9.07;7.60;;;5.90;99.90;;;;;;4992262;28;20596;-69
2023/04/18 05:03:35;;;;;;;7.65;6.90;;;6.00;99.90;;;;;;4991863;28;20676;-71
2023/04/18 05:06:03;;;;;;;12.38;7.90;;;5.90;99.90;;;;;;4992548;28;20297;-71
2023/04/18 05:08:30;;;;;;;9.00;7.22;;;5.90;99.90;;;;;;4992366;28;20215;-70
2023/04/18 05:10:58;;;;;;;7.63;5.00;;;5.90;99.90;;;;;;4992396;28;20215;-70
2023/04/18 05:13:24;;;;;;;11.40;8.18;;;5.90;99.90;;;;;;4992375;28;20310;-70
2023/04/18 05:15:51;;;;;;;7.25;5.30;;;5.90;99.90;;;;;;4991816;28;20239;-71
2023/04/18 05:18:19;;;;;;;7.03;5.90;;;5.90;99.90;;;;;;4992108;28;20215;-71
2023/04/18 05:20:46;;;;;;;11.60;9.43;;;5.90;99.90;;;;;;4992516;28;20208;-70
2023/04/18 05:23:13;;;;;;;11.73;9.50;;;5.90;99.90;;;;;;4991951;28;20234;-71
2023/04/18 05:25:39;;;;;;;10.88;6.18;;;6.00;99.90;;;;;;4991776;28;20236;-72
2023/04/18 05:28:08;;;;;;;16.23;7.85;;;6.00;99.90;;;;;;4991772;28;20208;-70
2023/04/18 05:30:34;;;;;;;6.78;5.53;;;6.00;99.90;;;;;;4992154;28;20238;-70
2023/04/18 05:33:01;;;;;;;15.10;6.43;;;5.90;99.90;;;;;;4991783;28;20215;-71
2023/04/18 05:35:28;;;;;;;15.77;6.85;;;5.90;99.90;;;;;;4991657;28;20238;-70
2023/04/18 05:37:55;;;;;;;11.85;8.00;;;6.00;99.90;;;;;;4991991;28;20210;-70
2023/04/18 05:40:21;;;;;;;4.43;4.13;;;6.10;99.90;;;;;;4992054;28;20710;-69
2023/04/18 05:42:48;;;;;;;9.48;6.65;;;6.20;99.90;;;;;;4991961;28;20215;-70
2023/04/18 05:45:16;;;;;;;9.20;8.35;;;6.30;99.90;;;;;;4992660;28;20235;-69
2023/04/18 05:47:43;;;;;;;10.90;6.72;;;6.30;99.90;;;;;;4992217;28;20208;-70
2023/04/18 05:50:10;;;;;;;11.07;7.07;;;6.30;99.90;;;;;;4991527;28;20219;-71
2023/04/18 05:52:37;;;;;;;9.68;6.65;;;6.40;99.90;;;;;;4991593;28;20680;-70
2023/04/18 05:55:05;;;;;;;8.80;7.60;;;6.40;99.90;;;;;;4990864;28;20528;-71
2023/04/18 05:57:32;;;;;;;8.90;8.02;;;6.30;99.90;;;;;;4992550;28;20673;-70
2023/04/18 05:59:58;;;;;;;5.20;4.88;;;6.30;99.90;;;;;;4992663;28;20304;-71
2023/04/18 06:02:26;;;;;;;15.13;8.98;;;6.40;99.90;;;;;;4991557;28;20203;-70
2023/04/18 06:04:53;;;;;;;9.13;6.75;;;6.50;99.90;;;;;;4991235;28;20226;-71
2023/04/18 06:07:23;;;;;;;9.13;7.05;;;6.80;99.90;;;;;;4991598;28;20208;-70
2023/04/18 06:09:52;;;;;;;17.02;6.35;;;7.20;99.90;;;;;;4991553;28;20233;-70
2023/04/18 06:12:18;;;;;;;17.55;10.15;;;7.70;99.90;;;;;;4991734;28;20579;-72
2023/04/18 06:14:45;;;;;;;17.88;9.18;;;8.20;99.90;;;;;;4990757;28;20242;-71
2023/04/18 06:17:12;;;;;;;18.05;6.43;;;8.30;99.90;;;;;;4991378;28;20222;-71
2023/04/18 06:19:40;;;;;;;6.57;5.95;;;8.20;99.90;;;;;;4991448;28;20208;-70
2023/04/18 06:22:07;;;;;;;6.88;6.18;;;8.00;99.90;;;;;;4991304;28;20204;-71
2023/04/18 06:24:34;;;;;;;8.15;4.70;;;7.80;99.90;;;;;;4991366;28;20228;-70
2023/04/18 06:27:01;;;;;;;10.02;8.80;;;7.60;99.90;;;;;;4991313;28;20203;-70
2023/04/18 06:29:31;;;;;;;9.70;6.82;;;7.50;99.90;;;;;;4991365;28;20593;-70
2023/04/18 06:31:58;;;;;;;12.13;6.43;;;7.30;99.90;;;;;;4991914;28;20204;-70
2023/04/18 06:34:25;;;;;;;12.48;8.68;;;7.30;99.90;;;;;;4990810;28;20238;-71
2023/04/18 06:36:53;;;;;;;2.72;2.50;;;7.30;99.90;;;;;;4991006;28;20610;-71
2023/04/18 06:39:20;;;;;;;14.30;6.35;;;7.30;99.90;;;;;;4990895;28;20565;-70
2023/04/18 06:41:47;;;;;;;5.90;4.85;;;7.40;99.90;;;;;;4991416;28;20238;-71
2023/04/18 06:44:14;;;;;;;6.38;3.70;;;7.40;99.90;;;;;;4990801;28;20410;-70
2023/04/18 06:46:41;;;;;;;8.25;6.70;;;7.40;99.90;;;;;;4991389;28;20203;-70
2023/04/18 06:49:08;;;;;;;12.07;6.00;;;7.50;99.90;;;;;;4991038;28;20571;-72
2023/04/18 06:51:35;;;;;;;10.73;6.50;;;7.70;99.90;;;;;;4991351;28;20568;-70
2023/04/18 06:54:03;;;;;;;7.95;4.68;;;8.00;99.90;;;;;;4991076;28;20212;-72
2023/04/18 06:56:30;;;;;;;6.85;4.93;;;8.10;99.90;;;;;;4990950;28;20239;-71
2023/04/18 06:58:57;;;;;;;12.70;7.18;;;8.20;99.90;;;;;;4990837;28;20208;-70
2023/04/18 07:01:23;;;;;;;5.43;5.03;;;8.40;99.90;;;;;;4991320;28;20320;-70
2023/04/18 07:03:50;;;;;;;6.25;5.65;;;8.50;99.90;;;;;;4990745;28;20227;-70
2023/04/18 07:06:17;;;;;;;6.05;5.38;;;8.60;99.90;;;;;;4990534;28;20223;-70
2023/04/18 07:08:44;;;;;;;16.40;5.00;;;8.70;99.90;;;;;;4993680;28;20208;-71
2023/04/18 07:11:13;;;;;;;15.40;5.82;;;8.90;99.90;;;;;;4994276;28;20239;-70
2023/04/18 07:13:39;;;;;;;7.20;6.00;;;9.00;99.90;;;;;;4993835;28;20241;-70
2023/04/18 07:16:07;;;;;;;5.95;4.63;;;9.20;99.90;;;;;;4994571;28;20243;-69
2023/04/18 07:18:33;;;;;;;4.70;4.30;;;9.20;99.90;;;;;;4994296;28;20207;-70
2023/04/18 07:21:00;;;;;;;4.32;3.60;;;9.20;99.90;;;;;;4994151;28;20294;-71
2023/04/18 07:23:27;;;;;;;6.68;5.55;;;9.20;99.90;;;;;;4993785;28;20604;-69
2023/04/18 07:25:54;;;;;;;5.88;5.00;;;9.20;99.90;;;;;;4993780;28;20257;-70
2023/04/18 07:28:22;;;;;;;8.18;5.35;;;9.40;99.90;;;;;;4993721;28;20214;-70
2023/04/18 07:30:49;;;;;;;6.32;3.95;;;9.40;99.90;;;;;;4994260;28;20212;-71
2023/04/18 07:33:15;;;;;;;7.43;6.25;;;9.40;99.90;;;;;;4990561;28;20205;-69
2023/04/18 07:35:44;;;;;;;5.45;5.07;;;9.40;99.90;;;;;;4993417;28;20227;-67
2023/04/18 07:38:11;;;;;;;6.85;4.20;;;9.50;99.90;;;;;;4993958;28;20252;-68
2023/04/18 07:40:38;;;;;;;3.10;2.55;;;9.60;99.90;;;;;;4993205;28;20223;-68
2023/04/18 07:43:05;;;;;;;4.00;3.22;;;9.60;99.90;;;;;;4993462;28;20551;-69
2023/04/18 07:45:34;;;;;;;5.55;4.43;;;9.60;99.90;;;;;;4993249;28;20319;-68
2023/04/18 07:48:01;;;;;;;5.82;4.90;;;9.60;99.90;;;;;;4993519;28;20302;-69
2023/04/18 07:50:28;;;;;;;4.28;3.88;;;9.60;99.90;;;;;;4993472;28;20692;-68
2023/04/18 07:52:54;;;;;;;4.68;3.70;;;9.60;99.90;;;;;;4993659;28;20208;-68
2023/04/18 07:55:21;;;;;;;7.00;6.40;;;9.50;99.90;;;;;;4992274;28;20319;-68
2023/04/18 07:57:49;;;;;;;4.07;3.83;;;9.30;99.90;;;;;;4993120;28;20218;-68
2023/04/18 08:00:16;;;;;;;7.03;3.88;;;9.10;99.90;;;;;;4993205;28;20631;-69
2023/04/18 08:02:45;;;;;;;2.92;2.72;;;9.00;99.90;;;;;;4993392;28;20295;-69
2023/04/18 08:05:11;;;;;;;3.50;3.10;;;9.00;99.90;;;;;;4992914;28;20659;-69
2023/04/18 08:07:38;;;;;;;2.17;2.00;;;8.90;99.90;;;;;;4993329;28;20203;-69
2023/04/18 08:10:06;;;;;;;3.90;3.70;;;8.80;99.90;;;;;;4992937;28;20219;-68
2023/04/18 08:12:35;;;;;;;4.50;4.13;;;8.90;99.90;;;;;;4993417;28;20204;-70
2023/04/18 08:15:02;;;;;;;2.63;2.50;;;9.00;99.90;;;;;;4992584;28;20235;-70
2023/04/18 08:17:29;;;;;;;6.35;5.93;;;9.10;99.90;;;;;;4993437;28;20232;-70
2023/04/18 08:19:57;;;;;;;3.53;3.33;;;9.20;99.90;;;;;;4992954;28;20212;-70
2023/04/18 08:22:24;;;;;;;7.55;4.40;;;9.20;99.90;;;;;;4993627;28;20229;-71
2023/04/18 08:24:51;;;;;;;4.05;3.72;;;9.30;99.90;;;;;;4992563;28;20238;-70
2023/04/18 08:27:18;;;;;;;3.33;3.13;;;9.40;99.90;;;;;;4993208;28;20235;-69
2023/04/18 08:29:45;;;;;;;3.00;2.75;;;9.60;99.90;;;;;;4992379;28;20211;-70
2023/04/18 08:32:12;;;;;;;5.85;2.60;;;9.80;99.90;;;;;;4993180;28;20214;-70
2023/04/18 08:34:38;;;;;;;2.90;2.50;;;9.80;99.90;;;;;;4989138;28;20220;-71
2023/04/18 08:37:06;;;;;;;4.65;4.22;;;9.60;99.90;;;;;;4992848;28;20223;-70
2023/04/18 08:39:33;;;;;;;1.25;1.23;;;9.40;99.90;;;;;;4992351;28;20262;-70
2023/04/18 08:42:00;;;;;;;2.83;2.72;;;9.30;99.90;;;;;;4992740;28;20665;-71
2023/04/18 08:44:28;;;;;;;2.88;2.28;;;9.20;99.90;;;;;;4991863;28;20232;-70
2023/04/18 08:46:56;;;;;;;5.07;2.50;;;9.20;99.90;;;;;;4992821;28;20584;-70
2023/04/18 08:49:24;;;;;;;2.67;2.08;;;9.30;99.90;;;;;;4992439;28;20235;-70
2023/04/18 08:51:52;;;;;;;3.00;2.00;;;9.40;99.90;;;;;;4992711;28;20584;-70
2023/04/18 08:54:21;;;;;;;4.00;2.15;;;9.40;99.90;;;;;;4991614;28;20287;-70
2023/04/18 08:57:03;;;;;;;1.92;1.77;;;9.50;99.90;;;;;;4992134;28;20714;-69
2023/04/18 08:59:31;;;;;;;4.00;2.80;;;9.60;99.90;;;;;;4992496;28;20314;-69
2023/04/18 09:02:00;;;;;;;1.60;1.60;;;9.60;99.90;;;;;;4993515;28;20577;-69
2023/04/18 09:04:34;;;;;;;1.95;1.77;;;9.60;99.90;;;;;;4991745;28;20704;-69
2023/04/18 09:07:01;;;;;;;4.05;2.90;;;9.70;99.90;;;;;;4992292;28;20208;-69
2023/04/18 09:09:43;;;;;;;2.83;2.60;;;9.80;99.90;;;;;;4992150;28;20216;-69
2023/04/18 09:12:13;;;;;;;2.47;2.38;;;9.80;99.90;;;;;;4992573;28;20214;-70
2023/04/18 09:14:41;;;;;;;2.30;2.20;;;9.70;99.90;;;;;;4992035;28;20311;-69
2023/04/18 09:17:09;;;;;;;2.95;2.70;;;9.80;99.90;;;;;;4992247;28;20224;-69
2023/04/18 09:19:37;;;;;;;3.75;3.45;;;9.90;99.90;;;;;;4992261;28;20203;-69
2023/04/18 09:22:04;;;;;;;1.98;1.98;;;10.10;99.90;;;;;;4992263;28;20657;-70
2023/04/18 09:24:33;;;;;;;0.82;0.80;;;10.20;99.90;;;;;;4991941;28;20604;-70
2023/04/18 09:27:00;;;;;;;2.67;2.00;;;10.40;99.90;;;;;;4992778;28;20303;-69
2023/04/18 09:29:45;;;;;;;2.03;1.80;;;10.50;99.90;;;;;;4992752;28;20207;-70
2023/04/18 09:32:19;;;;;;;1.67;1.47;;;10.80;99.90;;;;;;4993946;28;20215;-70
2023/04/18 09:34:46;;;;;;;2.87;1.80;;;10.90;99.90;;;;;;4988422;28;20970;-70
2023/04/18 09:37:13;;;;;;;1.90;1.70;;;10.90;99.90;;;;;;4991660;28;20526;-70
2023/04/18 09:39:42;;;;;;;4.10;3.10;;;11.00;99.90;;;;;;4991491;28;20979;-69
2023/04/18 09:42:10;;;;;;;2.45;2.25;;;11.00;99.90;;;;;;4991693;28;20462;-69
2023/04/18 09:44:37;;;;;;;4.80;2.47;;;11.10;99.90;;;;;;4991007;28;20234;-70
2023/04/18 09:47:07;;;;;;;2.40;1.90;;;11.10;99.90;;;;;;4991813;28;20467;-69
2023/04/18 09:49:34;;;;;;;2.23;2.07;;;11.20;99.90;;;;;;4991361;28;20466;-69
2023/04/18 09:52:05;;;;;;;2.63;2.43;;;11.30;99.90;;;;;;4991538;28;20462;-69
2023/04/18 09:54:36;;;;;;;1.20;1.10;;;11.20;99.90;;;;;;4991469;28;20497;-68
2023/04/18 09:57:08;;;;;;;3.47;2.30;;;11.10;99.90;;;;;;4991318;28;20613;-70
2023/04/18 09:59:42;;;;;;;2.03;1.90;;;11.20;99.90;;;;;;4991790;28;20459;-69
2023/04/18 10:02:15;;;;;;;14.43;2.53;;;11.20;99.90;;;;;;4991603;28;20570;-70
2023/04/18 10:04:43;;;;;;;1.80;1.70;;;11.30;99.90;;;;;;4990996;28;20533;-69
2023/04/18 10:07:11;;;;;;;2.03;1.87;;;11.40;99.90;;;;;;4991676;28;21011;-69
2023/04/18 10:09:41;;;;;;;2.07;1.97;;;11.60;99.90;;;;;;4991348;28;20467;-69
2023/04/18 10:12:11;;;;;;;2.50;1.63;;;11.60;99.90;;;;;;4991914;28;20534;-69
2023/04/18 10:14:41;;;;;;;2.40;2.30;;;11.60;99.90;;;;;;4991498;28;20495;-69
2023/04/18 10:17:08;;;;;;;3.80;2.47;;;11.50;99.90;;;;;;4992053;28;20497;-69
2023/04/18 10:19:37;;;;;;;3.27;2.30;;;11.60;99.90;;;;;;4991191;28;20463;-69
2023/04/18 10:22:04;;;;;;;2.00;1.83;;;11.40;99.90;;;;;;4991230;28;20462;-70
2023/04/18 10:24:48;;;;;;;2.10;2.07;;;11.40;99.90;;;;;;4990536;28;21081;-70
2023/04/18 10:27:17;;;;;;;4.20;2.80;;;11.50;99.90;;;;;;4992385;28;20545;-70
2023/04/18 10:29:48;;;;;;;2.80;2.53;;;11.50;99.90;;;;;;4995163;28;20459;-70
2023/04/18 10:32:15;;;;;;;2.20;2.10;;;11.60;99.90;;;;;;4997975;28;20816;-70
2023/04/18 10:34:42;;;;;;;2.07;1.97;;;11.70;99.90;;;;;;4996194;28;20490;-70
2023/04/18 10:37:11;;;;;;;2.00;2.00;;;11.70;99.90;;;;;;4999035;28;20541;-68
2023/04/18 10:39:49;;;;;;;2.40;2.30;;;11.60;99.90;;;;;;4998955;28;20841;-69
2023/04/18 10:42:17;;;;;;;1.80;1.70;;;11.70;99.90;;;;;;4994126;28;20557;-69
2023/04/18 10:45:04;;;;;;;2.20;2.13;;;11.80;99.90;;;;;;4995536;28;20500;-69
2023/04/18 10:47:31;;;;;;;2.83;1.70;;;11.80;99.90;;;;;;4996377;28;20458;-69
2023/04/18 10:50:02;;;;;;;2.20;2.00;;;11.90;99.90;;;;;;4996489;28;20850;-69
2023/04/18 10:52:29;;;;;;;1.30;1.20;;;11.80;99.90;;;;;;4995926;28;20489;-69
2023/04/18 10:55:08;;;;;;;5.80;2.80;;;11.90;99.90;;;;;;4994925;28;20562;-69
2023/04/18 10:57:41;;;;;;;1.37;1.27;;;11.90;99.90;;;;;;4994581;28;20482;-68
2023/04/18 11:00:11;;;;;;;2.40;2.20;;;11.80;99.90;;;;;;4995244;28;20463;-68
2023/04/18 11:02:38;;;;;;;7.83;1.93;;;11.80;99.90;;;;;;4995323;28;20463;-69
2023/04/18 11:05:07;;;;;;;4.90;2.73;;;11.90;99.90;;;;;;4994440;28;20490;-69
2023/04/18 11:07:35;;;;;;;2.40;2.10;;;12.00;99.90;;;;;;4994613;28;20469;-69
2023/04/18 11:10:01;;;;;;;2.33;2.13;;;12.10;99.90;;;;;;4993970;28;20474;-69
2023/04/18 11:12:32;;;;;;;2.00;1.80;;;12.10;99.90;;;;;;4994618;28;20469;-69
2023/04/18 11:15:01;;;;;;;13.27;2.73;;;12.10;99.90;;;;;;4993428;28;20494;-69
2023/04/18 11:17:31;;;;;;;1.37;1.37;;;12.20;99.90;;;;;;4994476;28;20490;-70
2023/04/18 11:20:07;;;;;;;2.93;2.50;;;12.30;99.90;;;;;;4994336;28;20840;-70
2023/04/18 11:22:45;;;;;;;1.43;1.43;;;12.40;99.90;;;;;;4994030;28;20462;-70
2023/04/18 11:25:12;;;;;;;2.87;1.47;;;12.50;99.90;;;;;;4993223;28;20482;-70
2023/04/18 11:27:41;;;;;;;2.27;1.97;;;12.60;99.90;;;;;;4993667;28;20932;-70
2023/04/18 11:30:11;;;;;;;1.83;1.67;;;12.60;99.90;;;;;;4993727;28;20462;-70
2023/04/18 11:32:38;;;;;;;2.63;2.53;;;12.60;99.90;;;;;;4993753;28;20965;-70
2023/04/18 11:35:05;;;;;;;3.20;3.00;;;12.60;99.90;;;;;;4992930;28;20482;-70
2023/04/18 11:37:32;;;;;;;4.73;2.27;;;12.50;99.90;;;;;;4993872;28;20491;-70
2023/04/18 11:39:59;;;;;;;2.63;1.80;;;12.60;99.90;;;;;;4993568;28;20459;-70
2023/04/18 11:42:27;;;;;;;2.10;2.00;;;12.70;99.90;;;;;;4994101;28;20463;-71
2023/04/18 11:44:53;;;;;;;3.13;1.97;;;12.80;99.90;;;;;;4992632;28;20870;-71
2023/04/18 11:47:26;;;;;;;1.77;1.77;;;12.90;99.90;;;;;;4993619;28;20463;-71
2023/04/18 11:49:58;;;;;;;2.40;2.07;;;13.00;99.90;;;;;;4993562;28;20504;-71
2023/04/18 11:52:26;;;;;;;2.00;1.90;;;13.10;99.90;;;;;;4993212;28;20474;-71
2023/04/18 11:54:53;;;;;;;2.77;2.67;;;13.00;99.90;;;;;;4991822;28;20486;-70
2023/04/18 11:57:22;;;;;;;2.60;2.10;;;12.90;99.90;;;;;;4993272;28;20479;-70
2023/04/18 11:59:53;;;;;;;1.60;1.60;;;12.90;99.90;;;;;;4992665;28;20463;-70
2023/04/18 12:02:21;;;;;;;1.73;1.63;;;12.90;99.90;;;;;;4993086;28;20486;-70
2023/04/18 12:04:56;;;;;;;2.20;2.20;;;13.00;99.90;;;;;;4992674;28;20951;-70
2023/04/18 12:07:31;;;;;;;3.37;2.20;;;13.00;99.90;;;;;;4993159;28;20459;-70
2023/04/18 12:09:58;;;;;;;1.57;1.47;;;13.10;99.90;;;;;;4992734;28;20462;-70
2023/04/18 12:12:25;;;;;;;2.20;2.10;;;13.00;99.90;;;;;;4993264;28;20515;-70
2023/04/18 12:14:59;;;;;;;1.50;1.50;;;12.90;99.90;;;;;;4992269;28;20805;-71
2023/04/18 12:17:26;;;;;;;1.63;1.63;;;13.00;99.90;;;;;;4994059;28;20550;-71
2023/04/18 12:19:54;;;;;;;1.97;1.90;;;12.90;99.90;;;;;;4993241;28;20471;-71
2023/04/18 12:22:41;;;;;;;2.00;1.90;;;13.00;99.90;;;;;;4993339;28;20463;-70
2023/04/18 12:25:12;;;;;;;2.03;1.60;;;13.00;99.90;;;;;;4992345;28;20878;-71
2023/04/18 12:27:52;;;;;;;1.30;1.20;;;12.90;99.90;;;;;;4992628;28;20467;-70
2023/04/18 12:30:20;;;;;;;1.77;1.67;;;13.00;99.90;;;;;;4992924;28;20470;-70
2023/04/18 12:32:49;;;;;;;1.23;0.93;;;13.00;99.90;;;;;;4992558;28;20469;-70
2023/04/18 12:35:17;;;;;;;2.10;2.00;;;12.80;99.90;;;;;;4991922;28;20939;-70
2023/04/18 12:37:46;;;;;;;1.90;1.90;;;12.90;99.90;;;;;;4993081;28;20495;-70
2023/04/18 12:40:13;;;;;;;1.90;1.80;;;12.90;99.90;;;;;;4992273;28;20475;-70
2023/04/18 12:42:41;;;;;;;1.60;1.50;;;12.90;99.90;;;;;;4992243;28;20497;-69
2023/04/18 12:45:09;;;;;;;2.50;2.30;;;13.00;99.90;;;;;;4992050;28;20487;-70
2023/04/18 12:47:37;;;;;;;2.50;2.30;;;12.80;99.90;;;;;;4992884;28;20477;-69
2023/04/18 12:50:05;;;;;;;2.03;1.60;;;12.80;99.90;;;;;;4992421;28;20531;-72
2023/04/18 12:52:32;;;;;;;2.03;1.93;;;12.80;99.90;;;;;;4992691;28;20475;-70
2023/04/18 12:55:00;;;;;;;2.40;2.27;;;12.90;99.90;;;;;;4991747;28;21023;-69
2023/04/18 12:57:27;;;;;;;3.67;2.37;;;13.10;99.90;;;;;;4993766;28;20494;-70
2023/04/18 12:59:53;;;;;;;1.17;1.07;;;13.20;99.90;;;;;;4993895;28;20462;-70
2023/04/18 13:02:20;;;;;;;2.07;1.90;;;13.20;99.90;;;;;;4994120;28;20475;-70
2023/04/18 13:04:47;;;;;;;2.87;2.23;;;13.30;99.90;;;;;;4991402;28;20582;-70
2023/04/18 13:07:14;;;;;;;2.47;2.30;;;13.20;99.90;;;;;;4992258;28;20458;-70
2023/04/18 13:09:40;;;;;;;2.47;2.37;;;13.10;99.90;;;;;;4991649;28;20470;-70
2023/04/18 13:12:08;;;;;;;3.17;2.97;;;12.90;99.90;;;;;;4991898;28;20473;-70
2023/04/18 13:14:35;;;;;;;3.33;2.40;;;12.70;99.90;;;;;;4990730;28;20487;-71
2023/04/18 13:17:02;;;;;;;5.50;3.23;;;12.60;99.90;;;;;;4992029;28;20495;-70
2023/04/18 13:19:29;;;;;;;2.93;2.80;;;12.50;99.90;;;;;;4991352;28;20462;-70
2023/04/18 13:21:55;;;;;;;3.10;2.77;;;12.50;99.90;;;;;;4991704;28;20511;-70
2023/04/18 13:24:22;;;;;;;3.03;2.90;;;12.50;99.90;;;;;;4990727;28;20467;-70
2023/04/18 13:26:49;;;;;;;3.87;3.47;;;12.50;99.90;;;;;;4991455;28;20818;-71
2023/04/18 13:29:17;;;;;;;5.17;4.67;;;12.60;99.90;;;;;;4990879;28;20470;-70
2023/04/18 13:31:44;;;;;;;3.87;3.57;;;12.60;99.90;;;;;;4991444;28;20485;-70
2023/04/18 13:34:10;;;;;;;3.27;3.00;;;12.60;99.90;;;;;;4987585;28;20474;-71
2023/04/18 13:36:37;;;;;;;4.43;3.17;;;12.60;99.90;;;;;;4991467;28;20932;-70
2023/04/18 13:39:04;;;;;;;6.00;3.07;;;12.70;99.90;;;;;;4991347;28;20994;-70
2023/04/18 13:41:32;;;;;;;2.80;2.60;;;12.60;99.90;;;;;;4991384;28;20862;-70
2023/04/18 13:43:58;;;;;;;4.37;3.80;;;12.70;99.90;;;;;;4991122;28;20467;-70
2023/04/18 13:46:27;;;;;;;4.60;4.00;;;12.70;99.90;;;;;;4991599;28;20483;-70
2023/04/18 13:48:53;;;;;;;5.63;3.83;;;12.70;99.90;;;;;;4992083;28;20467;-70
2023/04/18 13:51:20;;;;;;;4.03;3.17;;;12.80;99.90;;;;;;4992440;28;20467;-70
2023/04/18 13:53:47;;;;;;;3.37;3.07;;;12.80;99.90;;;;;;4990686;28;20464;-70
2023/04/18 13:56:14;;;;;;;3.50;3.20;;;12.90;99.90;;;;;;4990723;28;20487;-70
2023/04/18 13:58:41;;;;;;;3.73;3.53;;;12.90;99.90;;;;;;4990882;28;20483;-70
2023/04/18 14:01:07;;;;;;;3.13;3.03;;;13.00;99.90;;;;;;4990840;28;20550;-70
2023/04/18 14:03:35;;;;;;;4.47;4.27;;;13.00;99.90;;;;;;4990341;28;20551;-70
2023/04/18 14:06:02;;;;;;;4.57;4.17;;;13.00;99.90;;;;;;4990823;28;20551;-70
2023/04/18 14:08:29;;;;;;;3.50;3.20;;;13.10;99.90;;;;;;4991086;28;20459;-70
2023/04/18 14:10:55;;;;;;;3.17;2.97;;;13.20;99.90;;;;;;4990399;28;20466;-70
2023/04/18 14:13:22;;;;;;;5.83;3.17;;;13.20;99.90;;;;;;4990000;28;20542;-70
2023/04/18 14:15:49;;;;;;;2.50;2.50;;;13.10;99.90;;;;;;4990792;28;20513;-70
2023/04/18 14:18:20;;;;;;;5.70;3.30;;;13.00;99.90;;;;;;4991874;28;20494;-70
2023/04/18 14:20:48;;;;;;;3.63;3.33;;;13.00;99.90;;;;;;4990855;28;20505;-70
2023/04/18 14:23:15;;;;;;;3.57;3.27;;;13.00;99.90;;;;;;4990486;28;20486;-70
2023/04/18 14:25:42;;;;;;;12.20;4.07;;;13.00;99.90;;;;;;4990009;28;20515;-70
2023/04/18 14:28:10;;;;;;;3.10;2.90;;;13.10;99.90;;;;;;4990549;28;20459;-70
2023/04/18 14:30:37;;;;;;;4.67;4.37;;;13.20;99.90;;;;;;4990755;28;20529;-70
2023/04/18 14:33:04;;;;;;;4.70;4.30;;;13.30;99.90;;;;;;4990360;28;20562;-70
2023/04/18 14:35:31;;;;;;;3.83;3.43;;;13.40;99.90;;;;;;4990179;28;20494;-70
2023/04/18 14:37:59;;;;;;;10.83;5.13;;;13.50;99.90;;;;;;4991185;28;20482;-70
2023/04/18 14:40:26;;;;;;;3.13;2.40;;;13.60;99.90;;;;;;4990128;28;20502;-70
2023/04/18 14:42:52;;;;;;;4.10;3.80;;;13.50;99.90;;;;;;4990422;28;20474;-70
2023/04/18 14:45:19;;;;;;;3.30;3.00;;;13.40;99.90;;;;;;4989894;28;20487;-69
2023/04/18 14:47:46;;;;;;;3.03;2.83;;;13.40;99.90;;;;;;4991028;28;20459;-71
2023/04/18 14:50:14;;;;;;;5.93;4.20;;;13.40;99.90;;;;;;4990765;28;20477;-70
2023/04/18 14:52:41;;;;;;;3.30;3.00;;;13.50;99.90;;;;;;4990799;28;20463;-70
2023/04/18 14:55:10;;;;;;;7.03;4.70;;;13.50;99.90;;;;;;4989203;28;20497;-70
2023/04/18 14:57:38;;;;;;;5.33;4.93;;;13.40;99.90;;;;;;4990281;28;20502;-69
2023/04/18 15:00:09;;;;;;;3.60;3.30;;;13.40;99.90;;;;;;4990651;28;20474;-69
2023/04/18 15:02:36;;;;;;;9.33;3.80;;;13.50;99.90;;;;;;4990644;28;20493;-69
2023/04/18 15:05:03;;;;;;;3.87;3.60;;;13.50;99.90;;;;;;4990113;28;20498;-69
2023/04/18 15:07:30;;;;;;;3.00;2.90;;;13.40;99.90;;;;;;4990663;28;20463;-70
2023/04/18 15:09:57;;;;;;;3.90;3.63;;;13.30;99.90;;;;;;4990710;28;20490;-71
2023/04/18 15:12:25;;;;;;;3.40;3.17;;;13.30;99.90;;;;;;4991008;28;20478;-70
2023/04/18 15:14:52;;;;;;;3.57;2.63;;;13.30;99.90;;;;;;4989804;28;20490;-69
2023/04/18 15:17:19;;;;;;;4.50;3.40;;;13.30;99.90;;;;;;4990612;28;20959;-70
2023/04/18 15:19:46;;;;;;;3.70;3.50;;;13.30;99.90;;;;;;4990188;28;20519;-70
2023/04/18 15:22:13;;;;;;;2.50;2.40;;;13.30;99.90;;;;;;4990398;28;20470;-70
2023/04/18 15:24:40;;;;;;;3.43;2.63;;;13.40;99.90;;;;;;4989328;28;20486;-70
2023/04/18 15:27:06;;;;;;;3.90;2.70;;;13.40;99.90;;;;;;4990373;28;20474;-70
2023/04/18 15:29:35;;;;;;;7.80;4.50;;;13.40;99.90;;;;;;4992468;28;20473;-70
2023/04/18 15:32:02;;;;;;;4.90;4.40;;;13.40;99.90;;;;;;4993781;28;20466;-70
2023/04/18 15:34:29;;;;;;;4.50;3.27;;;13.40;99.90;;;;;;4989811;28;20972;-70
2023/04/18 15:36:55;;;;;;;3.10;3.00;;;13.40;99.90;;;;;;4993881;28;20459;-70
2023/04/18 15:39:22;;;;;;;5.50;3.43;;;13.40;99.90;;;;;;4993486;28;20544;-70
2023/04/18 15:41:52;;;;;;;1.70;1.63;;;13.30;99.90;;;;;;4994215;28;20488;-69
2023/04/18 15:44:19;;;;;;;3.30;3.00;;;13.10;99.90;;;;;;4992930;28;20845;-69
2023/04/18 15:46:47;;;;;;;3.47;3.13;;;13.00;99.90;;;;;;4994123;28;20470;-69
2023/04/18 15:49:14;;;;;;;4.37;4.17;;;13.00;99.90;;;;;;4993538;28;20503;-70
2023/04/18 15:51:41;;;;;;;2.37;2.27;;;13.00;99.90;;;;;;4993686;28;20470;-70
2023/04/18 15:54:08;;;;;;;3.73;3.40;;;12.90;99.90;;;;;;4993223;28;20477;-70
2023/04/18 15:56:35;;;;;;;5.60;3.67;;;12.80;99.90;;;;;;4993547;28;20593;-70
2023/04/18 15:59:03;;;;;;;7.80;3.87;;;12.80;99.90;;;;;;4993429;28;20576;-69
2023/04/18 16:01:30;;;;;;;3.13;2.93;;;12.80;99.90;;;;;;4994036;28;20474;-70
2023/04/18 16:03:58;;;;;;;4.80;4.47;;;12.80;99.90;;;;;;4993151;28;20469;-71
2023/04/18 16:06:25;;;;;;;3.60;3.30;;;12.80;99.90;;;;;;4993839;28;20838;-70
2023/04/18 16:08:52;;;;;;;2.90;2.37;;;12.90;99.90;;;;;;4993772;28;20466;-70
2023/04/18 16:11:20;;;;;;;4.63;4.10;;;12.90;99.90;;;;;;4993119;28;20478;-70
2023/04/18 16:13:47;;;;;;;4.20;3.83;;;12.80;99.90;;;;;;4992618;28;20617;-70
2023/04/18 16:16:13;;;;;;;4.47;3.77;;;12.80;99.90;;;;;;4994196;28;20522;-70
2023/04/18 16:18:40;;;;;;;4.20;3.90;;;12.80;99.90;;;;;;4995871;28;20483;-70
2023/04/18 16:21:08;;;;;;;3.50;3.27;;;12.80;99.90;;;;;;4996812;28;20474;-71
2023/04/18 16:23:35;;;;;;;2.87;2.67;;;12.70;99.90;;;;;;4997128;28;20458;-69
2023/04/18 16:26:01;;;;;;;3.67;2.77;;;12.70;99.90;;;;;;4996368;28;20483;-71
2023/04/18 16:28:29;;;;;;;2.53;2.33;;;12.70;99.90;;;;;;4995937;28;20455;-71
2023/04/18 16:30:56;;;;;;;3.57;2.60;;;12.70;99.90;;;;;;4996522;28;20462;-70
2023/04/18 16:33:24;;;;;;;2.40;2.03;;;12.60;99.90;;;;;;4995816;28;20462;-70
2023/04/18 16:35:51;;;;;;;1.87;1.70;;;12.60;99.90;;;;;;4995574;28;20498;-71
2023/04/18 16:38:22;;;;;;;3.23;3.03;;;12.50;99.90;;;;;;4995863;28;20491;-71
2023/04/18 16:40:48;;;;;;;2.33;2.23;;;12.50;99.90;;;;;;4995164;28;20459;-71
2023/04/18 16:43:15;;;;;;;2.87;2.67;;;12.50;99.90;;;;;;4995195;28;20469;-70
2023/04/18 16:45:42;;;;;;;3.40;2.70;;;12.50;99.90;;;;;;4995672;28;20981;-71
2023/04/18 16:48:09;;;;;;;6.63;2.80;;;12.50;99.90;;;;;;4996095;28;20469;-70
2023/04/18 16:50:35;;;;;;;2.97;2.37;;;12.50;99.90;;;;;;4995760;28;20458;-69
2023/04/18 16:53:02;;;;;;;2.75;2.55;;;12.50;99.90;;;;;;4996528;28;20459;-70
2023/04/18 16:55:30;;;;;;;5.43;3.40;;;12.50;99.90;;;;;;4994026;28;20238;-70